Old Milo, Arkansas
Current Conditions -  °F | °C
As of 4:15 AM on Tuesday 27 Jan 2015 (Local Time) from KBQP Reporting Station
Clear Clear  
Wind Chill: 43°   Ceiling: Unl
Heat Index: 43°   Visibility: 10mi
Dew Point: 36°   Wind: 3mph
Humidity: 75%   Direction: 270°W
Pressure: 30.04"   Gusts: NA
Location:  33.1762°N, 91.7595°W
Report Text: KBQP 271015Z AUTO 27003KT 10SM CLR 06/02 A3004 RMK AO2 T00620020
Loading
Personal Weather Stations






























Interactive Weather Map New forecast layout! Learn more

10-Day Weather Forecast

Advertisements
Track Severe Weather on mobile